Time;durP1;ratioP1;P1;durP2;ratioP2;P2;SDS_P1;SDS_P2;PMS_P1;PMS_P2;Temp;Humidity;BMP_temperature;BMP_pressure;BME280_temperature;BME280_humidity;BME280_pressure;Samples;Min_cycle;Max_cycle;Signal;HPM_P1;HPM_P2
2022/08/23 09:14:10;;;;;;;;;;;;;;;24.21;79.32;96532.61;533840;265;41286;-72
2022/08/23 09:16:46;;;;;;;;;;;;;;;24.23;77.83;96526.95;528285;265;68762;-64
2022/08/23 09:19:13;;;;;;;;;;;;;;;24.19;79.06;96523.27;528219;268;65357;-64
2022/08/23 09:21:42;;;;;;;;;;;;;;;24.25;79.00;96530.09;529263;265;68747;-64
2022/08/23 09:24:10;;;;;;;;;;;;;;;24.25;79.20;96524.73;533565;262;66183;-64
2022/08/23 09:26:45;;;;;;;;;;;;;;;24.25;79.12;96522.05;532651;264;47438;-67
2022/08/23 09:29:15;;;;;;;;;;;;;;;24.25;78.95;96530.09;533898;265;67725;-68
2022/08/23 09:31:44;;;;;;;;;;;;;;;24.25;78.97;96522.83;533927;265;68988;-68
2022/08/23 09:34:13;;;;;;;;;;;;;;;24.26;78.89;96520.97;533751;265;65918;-68
2022/08/23 09:36:43;;;;;;;;;;;;;;;24.25;78.85;96522.05;533630;265;46952;-68
2022/08/23 09:39:12;;;;;;;;;;;;;;;24.26;78.85;96526.34;533959;265;68830;-67
2022/08/23 09:41:42;;;;;;;;;;;;;;;24.26;78.79;96531.70;532470;265;65216;-68
2022/08/23 09:44:15;;;;;;;;;;;;;;;24.27;78.87;96533.28;533914;265;69621;-69
2022/08/23 09:46:45;;;;;;;;;;;;;;;24.27;78.76;96544.02;533932;265;67174;-71
2022/08/23 09:49:17;;;;;;;;;;;;;;;24.26;78.63;96545.92;533487;265;42041;-70
2022/08/23 09:51:45;;;;;;;;;;;;;;;24.26;78.59;96545.92;532634;265;68818;-68
2022/08/23 09:54:21;;;;;;;;;;;;;;;24.26;78.52;96551.29;533911;265;50228;-70
2022/08/23 09:57:02;;;;;;;;;;;;;;;24.28;78.46;96559.03;533901;265;65134;-70
2022/08/23 09:59:32;;;;;;;;;;;;;;;24.27;78.46;96560.13;533933;265;69516;-71
2022/08/23 10:02:01;;;;;;;;;;;;;;;24.27;78.30;96566.30;533798;265;45863;-69
2022/08/23 10:04:31;;;;;;;;;;;;;;;24.27;78.47;96592.36;533933;265;65365;-69
2022/08/23 10:07:01;;;;;;;;;;;;;;;24.27;78.50;96593.14;533965;265;69616;-69
2022/08/23 10:09:30;;;;;;;;;;;;;;;24.27;78.36;96603.09;533863;265;68867;-69
2022/08/23 10:12:00;;;;;;;;;;;;;;;24.27;78.29;96603.09;533950;265;66183;-70
2022/08/23 10:14:31;;;;;;;;;;;;;;;24.27;78.18;96613.84;534186;265;65990;-71
2022/08/23 10:17:12;;;;;;;;;;;;;;;24.27;77.98;96633.42;535038;264;66587;-70
2022/08/23 10:19:42;;;;;;;;;;;;;;;24.27;77.82;96644.16;535287;264;64902;-72
2022/08/23 10:22:20;;;;;;;;;;;;;;;24.27;77.82;96646.84;535129;265;69022;-69
2022/08/23 10:25:01;;;;;;;;;;;;;;;24.27;77.80;96646.84;534694;265;47572;-74
2022/08/23 10:30:25;;;;;;;;;;;;;;;24.27;77.62;96619.20;535051;264;50935;-73
2022/08/23 10:33:05;;;;;;;;;;;;;;;24.26;77.66;96606.89;535132;264;67842;-70
2022/08/23 10:35:36;;;;;;;;;;;;;;;24.26;77.55;96602.31;534805;264;47513;-70
2022/08/23 10:38:05;;;;;;;;;;;;;;;24.26;77.40;96614.95;535029;265;68669;-68
2022/08/23 10:40:44;;;;;;;;;;;;;;;24.26;77.33;96615.73;535217;264;66002;-70
2022/08/23 10:43:19;;;;;;;;;;;;;;;24.26;77.41;96607.68;535108;264;65328;-69
2022/08/23 10:45:46;;;;;;;;;;;;;;;24.26;76.58;96621.11;535023;264;68532;-68
2022/08/23 10:48:32;;;;;;;;;;;;;;;24.27;76.49;96651.43;535012;265;48345;-66
2022/08/23 10:51:01;;;;;;;;;;;;;;;24.26;77.10;96655.22;535087;264;67314;-67
2022/08/23 10:53:34;;;;;;;;;;;;;;;24.27;77.05;96662.17;535102;264;69077;-68
2022/08/23 10:56:04;;;;;;;;;;;;;;;24.26;76.99;96663.28;534970;264;68990;-68
2022/08/23 10:58:44;;;;;;;;;;;;;;;24.26;77.06;96671.33;534783;264;45020;-68
2022/08/23 11:01:16;;;;;;;;;;;;;;;24.26;77.01;96682.86;535223;264;68600;-69
2022/08/23 11:03:46;;;;;;;;;;;;;;;24.26;77.01;96684.77;535064;264;68621;-67
2022/08/23 11:06:25;;;;;;;;;;;;;;;24.26;76.76;96692.81;534984;264;65588;-70
2022/08/23 11:09:00;;;;;;;;;;;;;;;24.25;76.68;96693.89;535107;265;66342;-69
2022/08/23 11:11:33;;;;;;;;;;;;;;;24.25;76.57;96692.00;535008;264;67344;-69
2022/08/23 11:14:02;;;;;;;;;;;;;;;24.25;75.56;96691.20;533887;264;62765;-66
2022/08/23 11:16:31;;;;;;;;;;;;;;;24.26;75.81;96692.81;528502;268;69481;-66
2022/08/23 11:18:58;;;;;;;;;;;;;;;24.25;76.15;96688.52;528432;268;68792;-71
2022/08/23 11:21:40;;;;;;;;;;;;;;;24.25;76.29;96689.31;528348;268;45104;-72
2022/08/23 11:24:14;;;;;;;;;;;;;;;24.25;76.49;96675.09;528427;268;69354;-71
2022/08/23 11:26:47;;;;;;;;;;;;;;;24.26;76.65;96682.08;528395;268;69564;-72
2022/08/23 11:29:22;;;;;;;;;;;;;;;24.25;76.76;96681.25;528552;268;65430;-72
2022/08/23 11:32:09;;;;;;;;;;;;;;;24.25;76.79;96683.16;528261;268;50070;-71
2022/08/23 11:34:41;;;;;;;;;;;;;;;24.26;76.95;96690.92;528462;268;68723;-73
2022/08/23 11:37:20;;;;;;;;;;;;;;;24.25;76.95;96677.78;528489;268;66196;-72
2022/08/23 11:39:58;;;;;;;;;;;;;;;24.25;76.89;96669.72;528472;268;46343;-72
2022/08/23 11:42:41;;;;;;;;;;;;;;;24.25;76.92;96669.72;528148;268;49580;-71
2022/08/23 11:45:21;;;;;;;;;;;;;;;24.25;76.89;96672.41;528475;268;65252;-72
2022/08/23 11:47:54;;;;;;;;;;;;;;;24.25;76.92;96675.09;528450;268;66192;-72
2022/08/23 11:50:26;;;;;;;;;;;;;;;24.25;77.02;96677.78;528150;268;68753;-69
2022/08/23 11:52:58;;;;;;;;;;;;;;;24.26;77.02;96668.65;528540;268;66215;-70
2022/08/23 11:55:30;;;;;;;;;;;;;;;24.25;77.06;96669.72;528148;268;68769;-71
2022/08/23 11:58:16;;;;;;;;;;;;;;;24.24;77.15;96674.31;528110;268;49783;-69
2022/08/23 12:00:56;;;;;;;;;;;;;;;24.25;77.17;96669.72;528511;268;65228;-70
2022/08/23 12:03:25;;;;;;;;;;;;;;;24.25;77.16;96665.14;528435;268;68661;-68
2022/08/23 12:05:55;;;;;;;;;;;;;;;24.25;77.22;96667.83;528473;268;68634;-69
2022/08/23 12:08:30;;;;;;;;;;;;;;;24.24;77.21;96655.52;528495;268;65329;-73
2022/08/23 12:10:59;;;;;;;;;;;;;;;24.25;77.15;96658.98;528493;268;69226;-70
2022/08/23 12:13:31;;;;;;;;;;;;;;;24.23;75.47;96661.20;528510;268;68736;-69
2022/08/23 12:16:06;;;;;;;;;;;;;;;24.25;76.22;96659.77;531799;266;65029;-70
2022/08/23 12:18:35;;;;;;;;;;;;;;;24.26;77.35;96657.91;531959;266;69702;-71
2022/08/23 12:21:04;;;;;;;;;;;;;;;24.25;77.30;96654.41;531909;266;68387;-68
2022/08/23 12:23:33;;;;;;;;;;;;;;;24.26;77.27;96652.53;531985;266;64888;-66
2022/08/23 12:26:08;;;;;;;;;;;;;;;24.27;77.48;96654.12;531673;266;68951;-67
2022/08/23 12:28:38;;;;;;;;;;;;;;;24.26;77.53;96655.22;531819;266;66881;-66
2022/08/23 12:31:07;;;;;;;;;;;;;;;24.27;77.57;96646.06;532097;265;64848;-67
2022/08/23 12:33:42;;;;;;;;;;;;;;;24.26;77.64;96636.42;531329;266;68875;-68
2022/08/23 12:36:14;;;;;;;;;;;;;;;24.26;77.59;96623.79;532422;266;66680;-68
2022/08/23 12:38:43;;;;;;;;;;;;;;;24.26;77.67;96618.42;532483;266;62768;-67
2022/08/23 12:41:15;;;;;;;;;;;;;;;24.26;77.68;96609.58;532409;266;66571;-68
2022/08/23 12:43:44;;;;;;;;;;;;;;;24.26;77.60;96607.68;532395;266;66542;-64
2022/08/23 12:46:11;;;;;;;;;;;;;;;24.27;77.65;96608.47;532200;266;63829;-66
2022/08/23 12:48:40;;;;;;;;;;;;;;;24.27;77.51;96616.52;532557;266;68375;-68
2022/08/23 12:51:09;;;;;;;;;;;;;;;24.27;77.51;96613.84;532509;266;68783;-65
2022/08/23 12:56:58;;;;;;;;;;;;;;;24.28;77.31;96615.42;532817;266;40751;-65
2022/08/23 12:59:37;;;;;;;;;;;;;;;24.28;77.79;96610.05;532544;266;68694;-64
2022/08/23 13:02:06;;;;;;;;;;;;;;;24.28;77.92;96618.10;532604;266;65372;-66
2022/08/23 13:04:35;;;;;;;;;;;;;;;24.27;77.98;96609.26;532541;266;66632;-64
2022/08/23 13:07:04;;;;;;;;;;;;;;;24.27;78.07;96603.09;532545;266;68881;-67
2022/08/23 13:09:33;;;;;;;;;;;;;;;24.27;78.10;96598.52;532640;266;62564;-67
2022/08/23 13:12:01;;;;;;;;;;;;;;;24.27;78.23;96589.67;532437;266;66868;-68
2022/08/23 13:14:33;;;;;;;;;;;;;;;24.28;78.21;96593.94;532632;264;68740;-68
2022/08/23 13:17:20;;;;;;;;;;;;;;;24.28;78.12;96583.19;531090;266;65133;-68
2022/08/23 13:19:50;;;;;;;;;;;;;;;24.27;78.13;96584.30;531156;266;66465;-68
2022/08/23 13:22:27;;;;;;;;;;;;;;;24.28;78.20;96583.19;530408;267;68576;-67
2022/08/23 13:25:02;;;;;;;;;;;;;;;24.28;78.09;96585.87;531167;266;62850;-69
2022/08/23 13:27:32;;;;;;;;;;;;;;;24.28;78.07;96588.56;531831;264;68927;-70
2022/08/23 13:30:01;;;;;;;;;;;;;;;24.28;77.99;96585.87;531329;264;69509;-70
2022/08/23 13:32:31;;;;;;;;;;;;;;;24.28;77.95;96578.64;531040;266;62885;-70
2022/08/23 13:35:16;;;;;;;;;;;;;;;24.27;77.88;96565.50;531096;264;68922;-71
2022/08/23 13:37:47;;;;;;;;;;;;;;;24.28;77.90;96567.90;531480;264;68650;-70
2022/08/23 13:40:15;;;;;;;;;;;;;;;24.28;77.77;96567.08;531128;266;63176;-72
2022/08/23 13:42:47;;;;;;;;;;;;;;;24.27;77.76;96574.35;531121;266;68910;-71
2022/08/23 13:45:15;;;;;;;;;;;;;;;24.28;77.81;96577.82;531082;266;68937;-71
2022/08/23 13:47:47;;;;;;;;;;;;;;;24.28;77.89;96588.56;531064;266;65947;-69
2022/08/23 13:50:16;;;;;;;;;;;;;;;24.28;77.79;96597.44;530999;267;66665;-68
2022/08/23 13:52:44;;;;;;;;;;;;;;;24.28;77.70;96599.30;530886;266;66697;-68
2022/08/23 13:55:11;;;;;;;;;;;;;;;24.29;77.65;96603.59;530681;266;63912;-68
2022/08/23 13:57:39;;;;;;;;;;;;;;;24.28;77.60;96593.94;530662;266;68560;-69
2022/08/23 14:00:10;;;;;;;;;;;;;;;24.29;77.63;96590.17;531243;264;68831;-70
2022/08/23 14:02:38;;;;;;;;;;;;;;;24.29;77.44;96582.11;531288;264;65229;-69
2022/08/23 14:05:07;;;;;;;;;;;;;;;24.30;77.45;96589.06;531528;264;68613;-69
2022/08/23 14:07:34;;;;;;;;;;;;;;;24.29;77.45;96595.54;531385;264;68729;-68
2022/08/23 14:10:03;;;;;;;;;;;;;;;24.30;77.52;96589.06;531218;264;65117;-69
2022/08/23 14:12:32;;;;;;;;;;;;;;;24.29;77.55;96590.17;531051;266;67075;-69
2022/08/23 14:15:01;;;;;;;;;;;;;;;24.30;77.55;96602.48;532771;262;68857;-70
2022/08/23 14:17:29;;;;;;;;;;;;;;;24.29;77.35;96599.02;534100;265;65075;-69
2022/08/23 14:19:56;;;;;;;;;;;;;;;24.30;77.45;96597.91;534047;265;66820;-69
2022/08/23 14:22:24;;;;;;;;;;;;;;;24.31;77.51;96598.73;534118;265;68817;-69
2022/08/23 14:24:51;;;;;;;;;;;;;;;24.31;77.58;96598.73;534099;265;65095;-69
2022/08/23 14:27:19;;;;;;;;;;;;;;;24.30;77.61;96600.59;533967;265;68949;-68
2022/08/23 14:29:46;;;;;;;;;;;;;;;24.30;77.59;96603.28;534028;265;68990;-72
2022/08/23 14:32:14;;;;;;;;;;;;;;;24.29;77.68;96601.70;533989;265;64993;-71
2022/08/23 14:34:41;;;;;;;;;;;;;;;24.31;78.75;96598.73;534192;264;69038;-73
2022/08/23 14:37:09;;;;;;;;;;;;;;;24.30;77.75;96599.80;534032;265;66698;-70
2022/08/23 14:39:36;;;;;;;;;;;;;;;24.29;77.48;96604.39;534035;265;62831;-69
2022/08/23 14:42:05;;;;;;;;;;;;;;;24.30;77.38;96599.80;533978;265;68884;-69
2022/08/23 14:44:33;;;;;;;;;;;;;;;24.29;77.26;96596.33;534010;265;69018;-69
2022/08/23 14:47:01;;;;;;;;;;;;;;;24.29;77.20;96590.96;534075;265;65189;-70
2022/08/23 14:49:30;;;;;;;;;;;;;;;24.30;76.99;96597.12;529510;265;68971;-69
2022/08/23 14:51:58;;;;;;;;;;;;;;;24.29;76.93;96590.96;534145;265;66061;-69
2022/08/23 14:54:26;;;;;;;;;;;;;;;24.30;76.87;96583.69;534070;265;65225;-70
2022/08/23 14:56:53;;;;;;;;;;;;;;;24.30;76.91;96586.37;534112;265;68536;-70
2022/08/23 14:59:21;;;;;;;;;;;;;;;24.30;76.86;96589.85;534055;265;68701;-70
2022/08/23 15:01:51;;;;;;;;;;;;;;;24.29;76.88;96593.64;534127;265;63060;-70
2022/08/23 15:04:20;;;;;;;;;;;;;;;24.30;76.86;96587.17;534020;265;66193;-70
2022/08/23 15:06:48;;;;;;;;;;;;;;;24.30;76.83;96586.37;534178;265;68361;-70
2022/08/23 15:09:16;;;;;;;;;;;;;;;24.29;76.83;96590.96;534008;265;65026;-70
2022/08/23 15:11:43;;;;;;;;;;;;;;;24.29;76.79;96596.33;534087;265;65927;-70
2022/08/23 15:14:11;;;;;;;;;;;;;;;24.30;76.78;96597.91;534005;264;69015;-70
2022/08/23 15:16:39;;;;;;;;;;;;;;;24.30;76.74;96597.91;534044;265;62734;-70
2022/08/23 15:19:07;;;;;;;;;;;;;;;24.31;76.76;96599.52;534074;265;68476;-70
2022/08/23 15:21:34;;;;;;;;;;;;;;;24.30;76.74;96597.91;534107;265;68577;-69
2022/08/23 15:24:02;;;;;;;;;;;;;;;24.30;76.70;96591.75;534029;265;65218;-69
2022/08/23 15:26:30;;;;;;;;;;;;;;;24.30;76.76;96583.69;533937;265;69012;-70
2022/08/23 15:28:59;;;;;;;;;;;;;;;24.31;75.04;96582.61;534049;265;66736;-68
2022/08/23 15:31:27;;;;;;;;;;;;;;;24.32;76.04;96581.51;534276;264;63223;-68
2022/08/23 15:33:55;;;;;;;;;;;;;;;24.32;76.50;96581.51;533924;265;68947;-68
2022/08/23 15:36:22;;;;;;;;;;;;;;;24.33;76.84;96585.77;534176;265;68888;-68
2022/08/23 15:38:50;;;;;;;;;;;;;;;24.32;76.98;96565.39;534069;265;65121;-69
2022/08/23 15:41:18;;;;;;;;;;;;;;;24.33;77.25;96564.28;533850;265;68774;-68
2022/08/23 15:43:46;;;;;;;;;;;;;;;24.32;77.48;96560.81;533950;265;68908;-68
2022/08/23 15:46:18;;;;;;;;;;;;;;;24.32;77.36;96562.70;534029;265;62830;-69
2022/08/23 15:48:47;;;;;;;;;;;;;;;24.32;77.24;96557.34;534134;265;68880;-69
2022/08/23 15:51:16;;;;;;;;;;;;;;;24.31;77.41;96555.77;533482;265;66680;-69
2022/08/23 15:53:43;;;;;;;;;;;;;;;24.30;77.50;96549.57;533998;265;65204;-69
2022/08/23 15:56:12;;;;;;;;;;;;;;;24.30;77.44;96549.57;534041;265;69049;-69
2022/08/23 15:58:40;;;;;;;;;;;;;;;24.29;77.42;96566.79;534056;265;68566;-69
2022/08/23 16:01:08;;;;;;;;;;;;;;;24.29;77.18;96563.32;534106;265;62892;-69
2022/08/23 16:03:36;;;;;;;;;;;;;;;24.29;77.20;96569.48;534133;265;68958;-69
2022/08/23 16:06:05;;;;;;;;;;;;;;;24.30;77.12;96583.69;533961;265;68566;-69
2022/08/23 16:08:35;;;;;;;;;;;;;;;24.29;77.16;96588.28;534142;265;65295;-69
2022/08/23 16:11:06;;;;;;;;;;;;;;;24.29;77.14;96601.70;534187;265;68971;-70
2022/08/23 16:13:31;;;;;;;;;;;;;;;24.29;77.04;96598.23;533172;265;69115;-69
2022/08/23 16:15:59;;;;;;;;;;;;;;;24.29;77.14;96598.23;531191;264;65214;-69
2022/08/23 16:18:26;;;;;;;;;;;;;;;24.29;77.14;96603.59;531065;266;68792;-69
2022/08/23 16:20:54;;;;;;;;;;;;;;;24.28;77.06;96610.05;531147;266;68756;-69
2022/08/23 16:23:22;;;;;;;;;;;;;;;24.28;77.00;96623.47;531108;266;65026;-69
2022/08/23 16:25:49;;;;;;;;;;;;;;;24.28;77.05;96623.47;531645;264;68946;-69
2022/08/23 16:28:17;;;;;;;;;;;;;;;24.27;77.02;96630.73;530988;266;66480;-69
2022/08/23 16:30:45;;;;;;;;;;;;;;;24.27;77.08;96624.58;531188;266;62959;-69
2022/08/23 16:33:12;;;;;;;;;;;;;;;24.27;77.16;96624.58;531127;267;66481;-69
2022/08/23 16:35:40;;;;;;;;;;;;;;;24.27;77.13;96620.00;531140;266;66764;-69
2022/08/23 16:38:07;;;;;;;;;;;;;;;24.27;77.14;96616.52;531479;264;63309;-70
2022/08/23 16:40:37;;;;;;;;;;;;;;;24.26;77.16;96617.63;531436;264;66975;-65
2022/08/23 16:43:04;;;;;;;;;;;;;;;24.26;77.13;96636.42;531293;266;66510;-65
2022/08/23 16:45:32;;;;;;;;;;;;;;;24.27;77.05;96640.69;531122;266;65108;-66
2022/08/23 16:47:59;;;;;;;;;;;;;;;24.26;77.09;96633.74;531148;267;66509;-66
2022/08/23 16:50:27;;;;;;;;;;;;;;;24.26;77.07;96641.80;531186;266;66792;-71
2022/08/23 16:52:54;;;;;;;;;;;;;;;24.25;77.07;96638.30;531121;267;65216;-71
2022/08/23 16:55:23;;;;;;;;;;;;;;;24.25;77.10;96640.19;531126;266;69025;-71
2022/08/23 16:57:51;;;;;;;;;;;;;;;24.24;77.27;96625.97;531453;264;68767;-71
2022/08/23 17:00:18;;;;;;;;;;;;;;;24.25;77.21;96632.13;531365;264;63105;-71
2022/08/23 17:02:46;;;;;;;;;;;;;;;24.24;77.09;96652.83;531497;264;66729;-71
2022/08/23 17:05:15;;;;;;;;;;;;;;;24.24;76.99;96652.83;531260;264;66623;-71
2022/08/23 17:07:42;;;;;;;;;;;;;;;24.24;77.06;96658.20;531271;264;65303;-71
2022/08/23 17:10:11;;;;;;;;;;;;;;;24.25;77.08;96662.45;531173;264;69045;-71
2022/08/23 17:12:40;;;;;;;;;;;;;;;24.24;77.08;96657.41;531125;267;68675;-71
2022/08/23 17:15:09;;;;;;;;;;;;;;;24.24;77.07;96662.78;531053;265;66171;-70
2022/08/23 17:17:36;;;;;;;;;;;;;;;24.24;77.04;96660.88;531326;264;68991;-70
2022/08/23 17:20:04;;;;;;;;;;;;;;;24.24;77.09;96660.09;531392;266;68555;-70
2022/08/23 17:22:32;;;;;;;;;;;;;;;24.25;77.11;96672.41;531175;266;65052;-70
2022/08/23 17:25:01;;;;;;;;;;;;;;;24.24;77.18;96679.67;531394;264;68895;-70
2022/08/23 17:27:28;;;;;;;;;;;;;;;24.21;77.27;96664.17;531105;267;67944;-70
2022/08/23 17:29:56;;;;;;;;;;;;;;;24.23;77.20;96669.25;531116;266;65297;-70
2022/08/23 17:32:23;;;;;;;;;;;;;;;24.23;77.30;96677.31;531618;264;68705;-71
2022/08/23 17:34:51;;;;;;;;;;;;;;;24.22;77.27;96676.48;531178;266;68814;-71
2022/08/23 17:37:21;;;;;;;;;;;;;;;24.23;77.21;96677.31;531218;264;65022;-70
2022/08/23 17:39:50;;;;;;;;;;;;;;;24.21;77.30;96679.48;531353;264;68798;-71
2022/08/23 17:42:17;;;;;;;;;;;;;;;24.22;77.27;96689.12;531107;267;68693;-71
2022/08/23 17:44:47;;;;;;;;;;;;;;;24.23;77.38;96709.53;531202;266;66264;-71
2022/08/23 17:47:17;;;;;;;;;;;;;;;24.23;77.37;96712.21;531038;267;45517;-71
2022/08/23 17:49:47;;;;;;;;;;;;;;;24.21;77.33;96717.08;531152;266;68607;-71
2022/08/23 17:52:16;;;;;;;;;;;;;;;24.20;77.45;96721.66;531269;264;65196;-71
2022/08/23 17:54:43;;;;;;;;;;;;;;;24.21;77.34;96725.13;531322;264;69209;-71
2022/08/23 17:57:11;;;;;;;;;;;;;;;24.21;77.34;96733.98;531141;264;68773;-71
2022/08/23 17:59:38;;;;;;;;;;;;;;;24.21;77.33;96733.98;531949;264;65287;-71
2022/08/23 18:02:07;;;;;;;;;;;;;;;24.21;77.34;96743.93;531399;264;69644;-71
2022/08/23 18:04:36;;;;;;;;;;;;;;;24.21;77.44;96743.93;531204;264;66399;-71
2022/08/23 18:07:04;;;;;;;;;;;;;;;24.21;77.42;96749.30;531283;264;62807;-71
2022/08/23 18:09:31;;;;;;;;;;;;;;;24.20;77.47;96745.83;531374;264;66897;-71
2022/08/23 18:11:59;;;;;;;;;;;;;;;24.20;77.54;96739.64;531207;266;68625;-71
2022/08/23 18:14:27;;;;;;;;;;;;;;;24.21;77.50;96746.61;531157;266;64974;-71
2022/08/23 18:16:55;;;;;;;;;;;;;;;24.20;77.52;96753.06;531226;264;68959;-71
2022/08/23 18:19:23;;;;;;;;;;;;;;;24.19;77.49;96751.48;531082;267;68774;-71
2022/08/23 18:21:51;;;;;;;;;;;;;;;24.20;77.64;96753.06;531164;264;64881;-71
2022/08/23 18:24:19;;;;;;;;;;;;;;;24.19;77.84;96751.48;531091;266;66566;-71
2022/08/23 18:29:34;;;;;;;;;;;;;;;24.19;78.21;96756.84;531195;264;65276;-71
2022/08/23 18:32:04;;;;;;;;;;;;;;;24.19;78.16;96756.84;531143;264;68971;-72
2022/08/23 18:34:32;;;;;;;;;;;;;;;24.18;78.24;96755.27;531170;267;66289;-71
2022/08/23 18:37:00;;;;;;;;;;;;;;;24.18;78.37;96749.91;531185;266;65021;-71
2022/08/23 18:39:28;;;;;;;;;;;;;;;24.18;78.22;96734.58;531164;264;68848;-71
2022/08/23 18:41:55;;;;;;;;;;;;;;;24.17;77.89;96740.23;531094;264;69000;-71
2022/08/23 18:44:23;;;;;;;;;;;;;;;24.18;77.93;96733.79;531206;264;65104;-71
2022/08/23 18:46:50;;;;;;;;;;;;;;;24.17;78.03;96726.81;531172;266;69748;-71
2022/08/23 18:49:18;;;;;;;;;;;;;;;24.17;77.94;96732.97;531181;266;66405;-71
2022/08/23 18:51:46;;;;;;;;;;;;;;;24.17;77.93;96735.66;531334;264;62881;-71
2022/08/23 18:54:14;;;;;;;;;;;;;;;24.18;77.95;96736.48;531251;266;66608;-71
2022/08/23 18:56:42;;;;;;;;;;;;;;;24.17;77.98;96742.92;531205;264;68526;-71
2022/08/23 18:59:09;;;;;;;;;;;;;;;24.18;77.91;96755.27;531517;264;65105;-71
2022/08/23 19:01:39;;;;;;;;;;;;;;;24.17;77.88;96750.97;531192;267;65905;-71
2022/08/23 19:04:07;;;;;;;;;;;;;;;24.16;77.88;96742.12;531143;267;66375;-71
2022/08/23 19:06:35;;;;;;;;;;;;;;;24.17;77.94;96745.60;531136;266;65045;-72
2022/08/23 19:09:03;;;;;;;;;;;;;;;24.17;77.95;96753.66;532096;264;68721;-71
2022/08/23 19:11:30;;;;;;;;;;;;;;;;;;531377;264;67764;-71
2022/08/23 19:13:58;;;;;;;;;;;;;;;24.17;78.16;96769.77;531500;264;62838;-71
2022/08/23 19:16:26;;;;;;;;;;;;;;;24.16;78.24;96774.34;531337;264;68631;-71
2022/08/23 19:18:54;;;;;;;;;;;;;;;24.17;78.13;96788.56;531141;267;68364;-72
2022/08/23 19:21:25;;;;;;;;;;;;;;;24.16;77.97;96787.77;531369;266;46395;-72
2022/08/23 19:23:54;;;;;;;;;;;;;;;24.16;78.04;96793.14;531144;267;68015;-71
2022/08/23 19:26:24;;;;;;;;;;;;;;;24.15;78.15;96800.41;531142;266;68992;-71
2022/08/23 19:28:52;;;;;;;;;;;;;;;24.15;78.18;96811.14;531309;264;62782;-71
2022/08/23 19:31:19;;;;;;;;;;;;;;;24.15;78.23;96810.36;531284;264;68763;-71
2022/08/23 19:33:47;;;;;;;;;;;;;;;24.15;78.31;96821.88;531201;266;68885;-71
2022/08/23 19:36:15;;;;;;;;;;;;;;;24.14;78.20;96825.67;531107;266;62910;-71
2022/08/23 19:38:42;;;;;;;;;;;;;;;24.15;78.30;96819.20;531203;266;68770;-71
2022/08/23 19:41:10;;;;;;;;;;;;;;;24.15;78.40;96815.72;531337;264;66617;-71
2022/08/23 19:43:37;;;;;;;;;;;;;;;24.15;78.24;96813.04;531506;264;64990;-72
2022/08/23 19:46:07;;;;;;;;;;;;;;;24.14;78.25;96812.25;531354;264;69756;-71
2022/08/23 19:48:37;;;;;;;;;;;;;;;24.13;78.46;96810.64;531466;264;49590;-71
2022/08/23 19:51:12;;;;;;;;;;;;;;;24.15;78.43;96810.36;531162;267;44499;-71
2022/08/23 19:53:40;;;;;;;;;;;;;;;24.13;78.35;96816.01;531273;264;69676;-71
2022/08/23 19:56:08;;;;;;;;;;;;;;;24.14;78.40;96814.94;531111;266;68997;-71
2022/08/23 19:58:36;;;;;;;;;;;;;;;24.13;78.53;96802.58;531155;266;62800;-71
2022/08/23 20:01:04;;;;;;;;;;;;;;;24.13;78.31;96799.90;531149;264;68925;-71
2022/08/23 20:03:32;;;;;;;;;;;;;;;24.13;78.44;96791.84;531219;264;68712;-71
2022/08/23 20:05:59;;;;;;;;;;;;;;;24.13;78.31;96797.21;531307;266;66153;-71
2022/08/23 20:08:27;;;;;;;;;;;;;;;24.13;78.41;96796.42;531169;266;69733;-71
2022/08/23 20:10:55;;;;;;;;;;;;;;;24.14;78.52;96787.27;531105;266;69620;-71
2022/08/23 20:13:23;;;;;;;;;;;;;;;24.13;78.62;96791.05;530862;266;65175;-71
2022/08/23 20:15:51;;;;;;;;;;;;;;;24.13;78.60;96791.84;531284;264;66347;-71
2022/08/23 20:18:18;;;;;;;;;;;;;;;24.13;78.60;96789.16;531260;264;69508;-71
2022/08/23 20:20:46;;;;;;;;;;;;;;;24.13;78.67;96797.21;531296;264;66067;-71
2022/08/23 20:25:59;;;;;;;;;;;;;;;24.13;78.52;96829.43;531114;264;68600;-72
2022/08/23 20:28:27;;;;;;;;;;;;;;;24.13;78.50;96844.75;531275;264;64952;-72
2022/08/23 20:30:54;;;;;;;;;;;;;;;24.13;78.52;96848.23;531074;267;68883;-72
2022/08/23 20:33:22;;;;;;;;;;;;;;;24.12;78.49;96862.75;531196;266;68685;-72
2022/08/23 20:35:50;;;;;;;;;;;;;;;24.12;78.55;96854.70;531144;264;62863;-72
2022/08/23 20:38:17;;;;;;;;;;;;;;;24.11;78.65;96846.92;531579;264;68783;-72
2022/08/23 20:40:45;;;;;;;;;;;;;;;24.12;78.80;96843.95;531061;267;68611;-72
2022/08/23 20:43:12;;;;;;;;;;;;;;;24.12;78.77;96843.95;531311;264;63026;-72
2022/08/23 20:45:40;;;;;;;;;;;;;;;24.12;78.72;96857.38;531146;264;68800;-72
2022/08/23 20:48:07;;;;;;;;;;;;;;;24.12;78.63;96867.33;531232;266;69472;-72
2022/08/23 20:50:34;;;;;;;;;;;;;;;24.12;78.52;96886.91;531585;264;66132;-72
2022/08/23 20:53:02;;;;;;;;;;;;;;;24.12;78.45;96903.02;531238;266;69710;-72
2022/08/23 20:55:29;;;;;;;;;;;;;;;24.12;78.47;96908.39;531102;267;68721;-72
2022/08/23 20:57:57;;;;;;;;;;;;;;;24.13;78.44;96909.19;531345;264;66140;-72
2022/08/23 21:00:24;;;;;;;;;;;;;;;24.12;78.62;96911.08;531136;267;69584;-72
2022/08/23 21:02:52;;;;;;;;;;;;;;;24.12;78.64;96912.97;531129;267;66290;-72
2022/08/23 21:05:19;;;;;;;;;;;;;;;24.12;78.70;96913.77;531171;264;63760;-72
2022/08/23 21:07:49;;;;;;;;;;;;;;;24.12;78.64;96923.71;531212;264;48177;-71
2022/08/23 21:10:17;;;;;;;;;;;;;;;24.11;78.70;96927.47;531130;264;68962;-73
2022/08/23 21:12:44;;;;;;;;;;;;;;;24.11;78.64;96927.47;531340;264;65241;-71
2022/08/23 21:15:12;;;;;;;;;;;;;;;24.11;78.59;96933.62;533121;265;69650;-71
2022/08/23 21:17:39;;;;;;;;;;;;;;;24.10;78.56;96932.05;533927;265;68606;-72
2022/08/23 21:20:07;;;;;;;;;;;;;;;24.11;78.49;96943.58;534046;265;65015;-71
2022/08/23 21:22:35;;;;;;;;;;;;;;;24.11;78.19;96943.58;534013;265;69763;-71
2022/08/23 21:25:01;;;;;;;;;;;;;;;;;;534243;265;68612;-73
2022/08/23 21:27:29;;;;;;;;;;;;;;;24.11;77.96;96944.36;534184;265;64817;-71
2022/08/23 21:29:57;;;;;;;;;;;;;;;24.11;78.05;96944.36;533975;265;68510;-72
2022/08/23 21:32:25;;;;;;;;;;;;;;;24.11;78.31;96947.05;534149;265;68636;-72
2022/08/23 21:34:53;;;;;;;;;;;;;;;24.12;78.48;96945.19;534040;265;64652;-72
2022/08/23 21:37:20;;;;;;;;;;;;;;;24.11;78.58;96944.36;534153;265;66838;-71
2022/08/23 21:39:49;;;;;;;;;;;;;;;24.10;78.66;96945.47;534013;265;68692;-72
2022/08/23 21:42:17;;;;;;;;;;;;;;;24.10;78.69;96941.98;534011;265;62922;-72
2022/08/23 21:44:45;;;;;;;;;;;;;;;24.10;78.75;96944.67;534058;265;68707;-73
2022/08/23 21:47:13;;;;;;;;;;;;;;;24.10;78.66;96940.09;534089;265;69455;-71
2022/08/23 21:49:40;;;;;;;;;;;;;;;24.10;78.84;96936.63;534140;265;62982;-72
2022/08/23 21:52:08;;;;;;;;;;;;;;;24.11;78.85;96925.57;534095;265;67595;-72
2022/08/23 21:54:35;;;;;;;;;;;;;;;24.10;79.00;96923.98;534199;265;68636;-69
2022/08/23 21:57:03;;;;;;;;;;;;;;;24.10;79.05;96915.94;534116;265;64970;-68
2022/08/23 21:59:31;;;;;;;;;;;;;;;24.09;79.17;96903.61;534041;265;68925;-68
2022/08/23 22:01:58;;;;;;;;;;;;;;;24.09;79.27;96900.92;534104;265;69485;-68
2022/08/23 22:04:26;;;;;;;;;;;;;;;24.09;78.98;96887.50;534033;265;62817;-68
2022/08/23 22:06:53;;;;;;;;;;;;;;;24.09;78.79;96876.77;533994;265;68787;-68
2022/08/23 22:09:21;;;;;;;;;;;;;;;24.09;78.56;96866.03;534125;265;67505;-68
2022/08/23 22:11:51;;;;;;;;;;;;;;;24.09;78.44;96855.29;534161;265;65234;-68
2022/08/23 22:14:20;;;;;;;;;;;;;;;24.10;78.47;96848.03;534059;264;68822;-68
2022/08/23 22:16:53;;;;;;;;;;;;;;;24.09;78.53;96828.44;534171;265;68366;-68
2022/08/23 22:19:18;;;;;;;;;;;;;;;24.09;78.66;96815.02;533936;265;65179;-68
2022/08/23 22:21:47;;;;;;;;;;;;;;;24.09;78.66;96806.97;534188;265;66596;-68
2022/08/23 22:24:15;;;;;;;;;;;;;;;24.08;78.67;96799.98;533959;265;69089;-68